createdAt,value
2017-05-24T00:00:39.179Z,12.88
2017-05-24T00:01:39.242Z,12.88
2017-05-24T00:02:39.276Z,12.84
2017-05-24T00:03:39.319Z,12.76
2017-05-24T00:04:39.363Z,12.66
2017-05-24T00:05:39.395Z,12.78
2017-05-24T00:06:39.407Z,12.7
2017-05-24T00:07:39.452Z,12.65
2017-05-24T00:08:39.495Z,12.69
2017-05-24T00:09:39.508Z,12.59
2017-05-24T00:10:39.559Z,12.63
2017-05-24T00:11:39.598Z,12.69
2017-05-24T00:12:39.625Z,12.63
2017-05-24T00:13:39.662Z,12.65
2017-05-24T00:14:39.692Z,12.59
2017-05-24T00:15:39.718Z,12.61
2017-05-24T00:16:39.765Z,12.58
2017-05-24T00:17:39.809Z,12.61
2017-05-24T00:18:39.823Z,12.53
2017-05-24T00:19:39.864Z,12.56
2017-05-24T00:20:39.905Z,12.51
2017-05-24T00:21:39.932Z,12.55
2017-05-24T00:22:39.961Z,12.51
2017-05-24T00:23:40.003Z,12.52
2017-05-24T00:24:40.011Z,12.51
2017-05-24T00:25:40.053Z,12.48
2017-05-24T00:26:40.089Z,12.48
2017-05-24T00:27:40.138Z,12.43
2017-05-24T00:28:40.169Z,12.44
2017-05-24T00:29:40.210Z,12.43
2017-05-24T00:30:40.229Z,12.48
2017-05-24T00:31:40.273Z,12.38
2017-05-24T00:32:40.305Z,12.4
2017-05-24T00:33:40.318Z,12.33
2017-05-24T00:34:40.373Z,12.37
2017-05-24T00:35:40.403Z,12.37
2017-05-24T00:36:40.419Z,12.38
2017-05-24T00:37:40.469Z,12.4
2017-05-24T00:38:40.559Z,12.37
2017-05-24T00:39:40.539Z,12.34
2017-05-24T00:40:40.577Z,12.36
2017-05-24T00:41:40.602Z,12.31
2017-05-24T00:42:40.624Z,12.33
2017-05-24T00:43:40.674Z,12.33
2017-05-24T00:44:40.703Z,12.31
2017-05-24T00:45:40.710Z,12.28
2017-05-24T00:46:40.737Z,12.34
2017-05-24T00:47:40.804Z,12.36
2017-05-24T00:48:40.828Z,12.36
2017-05-24T00:49:40.866Z,12.34
2017-05-24T00:50:40.904Z,12.34
2017-05-24T00:51:40.934Z,12.44
2017-05-24T00:52:40.964Z,12.41
2017-05-24T00:53:41.003Z,12.36
2017-05-24T00:54:41.039Z,12.37
2017-05-24T00:55:41.064Z,12.31
2017-05-24T00:56:41.107Z,12.33
2017-05-24T00:57:41.138Z,12.37
2017-05-24T00:58:41.168Z,12.41
2017-05-24T00:59:41.194Z,12.45
2017-05-24T01:00:41.217Z,12.47
2017-05-24T01:01:41.266Z,12.47
2017-05-24T01:02:41.305Z,12.45
2017-05-24T01:03:41.340Z,12.52
2017-05-24T01:04:41.366Z,12.48
2017-05-24T01:05:41.395Z,12.44
2017-05-24T01:06:41.421Z,12.43
2017-05-24T01:07:41.464Z,12.43
2017-05-24T01:08:41.494Z,12.44
2017-05-24T01:09:41.518Z,12.44
2017-05-24T01:10:41.557Z,12.38
2017-05-24T01:11:41.599Z,12.44
2017-05-24T01:12:41.818Z,12.53
2017-05-24T01:13:41.662Z,12.52
2017-05-24T01:14:41.705Z,12.56
2017-05-24T01:15:41.751Z,12.51
2017-05-24T01:16:41.770Z,12.47
2017-05-24T01:17:41.799Z,12.44
2017-05-24T01:18:41.907Z,12.43
2017-05-24T01:19:41.860Z,12.47
2017-05-24T01:20:41.896Z,12.38
2017-05-24T01:21:41.928Z,12.31
2017-05-24T01:22:41.961Z,12.4
2017-05-24T01:23:41.996Z,12.33
2017-05-24T01:24:42.014Z,12.36
2017-05-24T01:25:42.061Z,12.34
2017-05-24T01:26:42.098Z,12.28
2017-05-24T01:27:42.113Z,12.36
2017-05-24T01:28:42.158Z,12.36
2017-05-24T01:29:42.212Z,12.26
2017-05-24T01:30:42.227Z,12.29
2017-05-24T01:31:42.260Z,12.25
2017-05-24T01:32:42.296Z,12.28
2017-05-24T01:33:42.331Z,12.28
2017-05-24T01:34:42.369Z,12.19
2017-05-24T01:35:42.728Z,12.1
2017-05-24T01:36:42.414Z,12.29
2017-05-24T01:37:42.459Z,12.22
2017-05-24T01:38:42.483Z,12.25
2017-05-24T01:39:42.472Z,12.28
2017-05-24T01:40:42.533Z,12.34
2017-05-24T01:41:42.584Z,12.33
2017-05-24T01:42:42.615Z,12.26
2017-05-24T01:43:42.658Z,12.37
2017-05-24T01:44:42.696Z,12.29
2017-05-24T01:45:42.730Z,12.33
2017-05-24T01:46:42.756Z,12.41
2017-05-24T01:47:42.807Z,12.48
2017-05-24T01:48:42.834Z,12.47
2017-05-24T01:49:42.950Z,12.41
2017-05-24T01:50:42.902Z,12.48
2017-05-24T01:51:42.908Z,12.53
2017-05-24T01:52:42.956Z,12.53
2017-05-24T01:53:43.001Z,12.55
2017-05-24T01:54:43.020Z,12.63
2017-05-24T01:55:43.052Z,12.71
2017-05-24T01:56:43.086Z,12.76
2017-05-24T01:57:43.125Z,12.86
2017-05-24T01:58:43.156Z,12.84
2017-05-24T01:59:43.196Z,12.86
2017-05-24T02:00:43.202Z,12.84
2017-05-24T02:01:43.259Z,12.98
2017-05-24T02:02:43.268Z,12.84
2017-05-24T02:03:43.384Z,12.95
2017-05-24T02:04:43.361Z,12.96
2017-05-24T02:05:43.376Z,12.94
2017-05-24T02:06:43.406Z,13.06
2017-05-24T02:07:43.458Z,13.09
2017-05-24T02:08:43.487Z,13.07
2017-05-24T02:09:43.505Z,13.09
2017-05-24T02:10:43.559Z,13.06
2017-05-24T02:11:43.592Z,13.01
2017-05-24T02:12:43.621Z,13.09
2017-05-24T02:13:43.683Z,12.98
2017-05-24T02:14:43.686Z,13.09
2017-05-24T02:15:43.710Z,13.09
2017-05-24T02:16:43.755Z,13.09
2017-05-24T02:17:43.784Z,13.06
2017-05-24T02:18:43.795Z,13.09
2017-05-24T02:19:43.818Z,13.01
2017-05-24T02:20:43.889Z,13.1
2017-05-24T02:21:43.909Z,13.1
2017-05-24T02:22:43.962Z,13.11
2017-05-24T02:23:44.003Z,13.13
2017-05-24T02:24:43.995Z,13.01
2017-05-24T02:25:44.055Z,13.02
2017-05-24T02:26:44.067Z,13.16
2017-05-24T02:27:44.109Z,13.02
2017-05-24T02:28:44.165Z,13.03
2017-05-24T02:29:44.171Z,13.13
2017-05-24T02:30:44.223Z,13.16
2017-05-24T02:31:44.259Z,13.14
2017-05-24T02:32:44.283Z,13.21
2017-05-24T02:33:44.341Z,13.17
2017-05-24T02:34:44.340Z,13.27
2017-05-24T02:35:44.382Z,13.25
2017-05-24T02:36:44.426Z,13.24
2017-05-24T02:37:44.447Z,13.2
2017-05-24T02:38:44.485Z,13.24
2017-05-24T02:39:44.523Z,13.2
2017-05-24T02:40:44.541Z,13.32
2017-05-24T02:41:44.581Z,13.25
2017-05-24T02:42:44.621Z,13.27
2017-05-24T02:43:44.639Z,13.21
2017-05-24T02:44:44.690Z,13.28
2017-05-24T02:45:44.720Z,13.19
2017-05-24T02:46:44.744Z,13.27
2017-05-24T02:47:44.771Z,13.24
2017-05-24T02:48:44.820Z,13.17
2017-05-24T02:49:44.863Z,13.24
2017-05-24T02:50:44.895Z,13.36
2017-05-24T02:51:44.909Z,13.36
2017-05-24T02:52:44.945Z,13.21
2017-05-24T02:53:44.986Z,13.24
2017-05-24T02:54:45.036Z,13.19
2017-05-24T02:55:45.041Z,13.16
2017-05-24T02:56:45.074Z,13.17
2017-05-24T02:57:45.126Z,13.2
2017-05-24T02:58:45.159Z,13.16
2017-05-24T02:59:45.189Z,13.17
2017-05-24T03:00:45.226Z,13.17
2017-05-24T03:01:45.244Z,13.1
2017-05-24T03:02:45.281Z,13.09
2017-05-24T03:03:45.416Z,13.01
2017-05-24T03:04:45.359Z,13.06
2017-05-24T03:05:45.381Z,13.16
2017-05-24T03:06:45.409Z,13.14
2017-05-24T03:07:45.535Z,13.17
2017-05-24T03:08:45.488Z,13.17
2017-05-24T03:09:45.512Z,13.14
2017-05-24T03:10:45.645Z,13.25
2017-05-24T03:11:45.593Z,13.19
2017-05-24T03:12:45.618Z,13.2
2017-05-24T03:13:45.646Z,13.27
2017-05-24T03:14:45.691Z,13.35
2017-05-24T03:15:45.974Z,13.37
2017-05-24T03:16:45.732Z,13.21
2017-05-24T03:17:45.794Z,13.21
2017-05-24T03:18:45.824Z,13.42
2017-05-24T03:19:45.837Z,13.28
2017-05-24T03:20:45.893Z,13.45
2017-05-24T03:21:45.921Z,13.31
2017-05-24T03:22:45.911Z,13.29
2017-05-24T03:23:45.983Z,13.36
2017-05-24T03:24:46.019Z,13.31
2017-05-24T03:25:46.023Z,13.35
2017-05-24T03:26:46.078Z,13.45
2017-05-24T03:27:46.142Z,13.35
2017-05-24T03:28:46.133Z,13.39
2017-05-24T03:29:46.178Z,13.45
2017-05-24T03:30:46.262Z,13.5
2017-05-24T03:31:46.234Z,13.45
2017-05-24T03:32:46.227Z,13.45
2017-05-24T03:33:46.320Z,13.47
2017-05-24T03:34:46.353Z,13.45
2017-05-24T03:35:46.378Z,13.45
2017-05-24T03:36:46.415Z,13.5
2017-05-24T03:37:46.442Z,13.48
2017-05-24T03:38:46.533Z,13.47
2017-05-24T03:39:46.519Z,13.47
2017-05-24T03:40:46.536Z,13.57
2017-05-24T03:41:46.581Z,13.53
2017-05-24T03:42:46.611Z,13.54
2017-05-24T03:43:46.651Z,13.66
2017-05-24T03:44:46.681Z,13.58
2017-05-24T03:45:46.828Z,13.65
2017-05-24T03:46:46.779Z,13.51
2017-05-24T03:47:46.775Z,13.66
2017-05-24T03:48:46.812Z,13.62
2017-05-24T03:49:46.850Z,13.68
2017-05-24T03:50:46.855Z,13.57
2017-05-24T03:51:46.922Z,13.62
2017-05-24T03:52:46.939Z,13.62
2017-05-24T03:53:46.972Z,13.66
2017-05-24T03:54:47.014Z,13.53
2017-05-24T03:55:47.037Z,13.51
2017-05-24T03:56:47.091Z,13.53
2017-05-24T03:57:47.119Z,13.48
2017-05-24T03:58:47.129Z,13.53
2017-05-24T03:59:47.175Z,13.48
2017-05-24T04:00:47.210Z,13.48
2017-05-24T04:01:47.220Z,13.53
2017-05-24T04:02:47.291Z,13.48
2017-05-24T04:03:47.329Z,13.53
2017-05-24T04:04:47.342Z,13.54
2017-05-24T04:05:47.378Z,13.62
2017-05-24T04:06:47.414Z,13.66
2017-05-24T04:07:47.438Z,13.54
2017-05-24T04:08:47.494Z,13.5
2017-05-24T04:09:47.510Z,13.5
2017-05-24T04:10:47.528Z,13.47
2017-05-24T04:11:47.583Z,13.48
2017-05-24T04:12:47.609Z,13.53
2017-05-24T04:13:47.632Z,13.5
2017-05-24T04:14:47.675Z,13.65
2017-05-24T04:15:47.696Z,13.65
2017-05-24T04:16:47.742Z,13.5
2017-05-24T04:17:47.776Z,13.62
2017-05-24T04:18:47.809Z,13.63
2017-05-24T04:19:47.837Z,13.63
2017-05-24T04:20:47.873Z,13.57
2017-05-24T04:21:47.911Z,13.58
2017-05-24T04:22:47.925Z,13.63
2017-05-24T04:23:47.974Z,13.63
2017-05-24T04:24:48.020Z,13.58
2017-05-24T04:25:48.060Z,13.66
2017-05-24T04:26:48.077Z,13.62
2017-05-24T04:27:48.120Z,13.58
2017-05-24T04:28:48.121Z,13.62
2017-05-24T04:29:48.173Z,13.58
2017-05-24T04:30:48.214Z,13.65
2017-05-24T04:31:48.242Z,13.63
2017-05-24T04:32:48.274Z,13.53
2017-05-24T04:33:48.323Z,13.53
2017-05-24T04:34:48.322Z,13.53
2017-05-24T04:35:48.371Z,13.51
2017-05-24T04:36:48.395Z,13.55
2017-05-24T04:37:48.424Z,13.55
2017-05-24T04:38:48.476Z,13.57
2017-05-24T04:39:48.506Z,13.5
2017-05-24T04:40:48.533Z,13.53
2017-05-24T04:41:48.581Z,13.51
2017-05-24T04:42:48.607Z,13.47
2017-05-24T04:43:48.642Z,13.53
2017-05-24T04:44:48.673Z,13.53
2017-05-24T04:45:48.707Z,13.66
2017-05-24T04:46:48.732Z,13.58
2017-05-24T04:47:48.773Z,13.58
2017-05-24T04:48:48.811Z,13.6
2017-05-24T04:49:48.847Z,13.66
2017-05-24T04:50:48.933Z,13.68
2017-05-24T04:51:48.903Z,13.58
2017-05-24T04:52:48.911Z,13.69
2017-05-24T04:53:48.979Z,13.6
2017-05-24T04:54:49.009Z,13.7
2017-05-24T04:55:49.038Z,13.63
2017-05-24T04:56:49.054Z,13.66
2017-05-24T04:57:49.113Z,13.68
2017-05-24T04:58:49.140Z,13.73
2017-05-24T04:59:49.173Z,13.69
2017-05-24T05:00:49.194Z,13.72
2017-05-24T05:01:49.221Z,13.73
2017-05-24T05:02:49.262Z,13.83
2017-05-24T05:03:49.313Z,13.78
2017-05-24T05:04:49.332Z,13.84
2017-05-24T05:05:49.379Z,13.83
2017-05-24T05:06:49.394Z,13.84
2017-05-24T05:07:49.420Z,13.81
2017-05-24T05:08:49.527Z,13.88
2017-05-24T05:09:49.508Z,13.88
2017-05-24T05:10:49.534Z,13.93
2017-05-24T05:11:49.580Z,13.9
2017-05-24T05:12:49.619Z,13.86
2017-05-24T05:13:49.642Z,13.88
2017-05-24T05:14:49.803Z,13.84
2017-05-24T05:15:49.801Z,13.88
2017-05-24T05:16:49.797Z,13.91
2017-05-24T05:17:49.776Z,13.97
2017-05-24T05:18:49.819Z,13.91
2017-05-24T05:19:49.903Z,13.9
2017-05-24T05:20:49.873Z,13.88
2017-05-24T05:21:49.907Z,13.87
2017-05-24T05:22:49.940Z,13.95
2017-05-24T05:23:49.981Z,14.02
2017-05-24T05:24:50.003Z,14.01
2017-05-24T05:25:50.133Z,13.99
2017-05-24T05:26:50.060Z,13.99
2017-05-24T05:27:50.108Z,14.09
2017-05-24T05:28:50.125Z,14.02
2017-05-24T05:29:50.183Z,14.05
2017-05-24T05:30:50.378Z,14.08
2017-05-24T05:31:50.246Z,14.11
2017-05-24T05:32:50.271Z,13.97
2017-05-24T05:33:50.312Z,14.06
2017-05-24T05:34:50.329Z,14.11
2017-05-24T05:35:50.851Z,14.12
2017-05-24T05:36:50.453Z,14.03
2017-05-24T05:37:50.430Z,14.09
2017-05-24T05:38:50.466Z,14.13
2017-05-24T05:39:50.704Z,14.15
2017-05-24T05:40:50.549Z,14.12
2017-05-24T05:41:50.589Z,14.19
2017-05-24T05:42:50.807Z,14.06
2017-05-24T05:43:50.850Z,14.11
2017-05-24T05:44:50.678Z,14.11
2017-05-24T05:45:50.723Z,14.01
2017-05-24T05:46:50.745Z,14.01
2017-05-24T05:47:50.775Z,14.03
2017-05-24T05:48:51.426Z,14.05
2017-05-24T05:49:50.851Z,14.02
2017-05-24T05:50:50.876Z,14.13
2017-05-24T05:51:50.919Z,14.11
2017-05-24T05:52:50.947Z,14.2
2017-05-24T05:53:50.977Z,14.12
2017-05-24T05:54:51.014Z,14.16
2017-05-24T05:55:51.052Z,14.27
2017-05-24T05:56:51.082Z,14.2
2017-05-24T05:57:51.313Z,14.3
2017-05-24T05:58:51.142Z,14.28
2017-05-24T05:59:51.180Z,14.36
2017-05-24T06:00:51.214Z,14.31
2017-05-24T06:01:51.246Z,14.28
2017-05-24T06:02:51.495Z,14.27
2017-05-24T06:03:51.313Z,14.16
2017-05-24T06:04:51.347Z,14.2
2017-05-24T06:05:51.366Z,14.16
2017-05-24T06:06:51.419Z,14.12
2017-05-24T06:07:51.432Z,14.11
2017-05-24T06:08:52.082Z,14.12
2017-05-24T06:09:51.512Z,14.16
2017-05-24T06:10:51.553Z,14.11
2017-05-24T06:11:51.775Z,14.13
2017-05-24T06:12:51.612Z,14.15
2017-05-24T06:13:51.656Z,14.12
2017-05-24T06:14:54.959Z,14.09
2017-05-24T06:15:51.699Z,14.15
2017-05-24T06:16:51.949Z,14.16
2017-05-24T06:17:51.770Z,14.13
2017-05-24T06:18:51.818Z,14.09
2017-05-24T06:19:51.831Z,14.05
2017-05-24T06:20:51.867Z,14.05
2017-05-24T06:21:51.911Z,14.06
2017-05-24T06:22:51.970Z,14.03
2017-05-24T06:23:51.988Z,14.03
2017-05-24T06:24:52.028Z,13.94
2017-05-24T06:25:52.043Z,13.99
2017-05-24T06:26:52.084Z,13.99
2017-05-24T06:27:52.916Z,14.11
2017-05-24T06:28:52.158Z,14.03
2017-05-24T06:29:52.187Z,14.15
2017-05-24T06:30:52.226Z,14.2
2017-05-24T06:31:52.654Z,14.33
2017-05-24T06:32:52.291Z,14.39
2017-05-24T06:33:52.321Z,14.46
2017-05-24T06:34:52.358Z,14.46
2017-05-24T06:35:52.370Z,14.56
2017-05-24T06:36:52.487Z,14.48
2017-05-24T06:37:52.461Z,14.56
2017-05-24T06:38:52.492Z,14.45
2017-05-24T06:39:52.517Z,14.46
2017-05-24T06:40:52.553Z,14.45
2017-05-24T06:41:52.590Z,14.38
2017-05-24T06:42:52.628Z,14.28
2017-05-24T06:43:52.657Z,14.26
2017-05-24T06:44:52.693Z,14.19
2017-05-24T06:45:52.705Z,14.16
2017-05-24T06:46:52.760Z,14.19
2017-05-24T06:47:52.786Z,14.01
2017-05-24T06:48:52.826Z,14.09
2017-05-24T06:49:52.869Z,14.06
2017-05-24T06:50:52.878Z,14.13
2017-05-24T06:51:52.929Z,14.19
2017-05-24T06:52:53.002Z,14.15
2017-05-24T06:53:52.979Z,14.21
2017-05-24T06:54:53.031Z,14.26
2017-05-24T06:55:53.068Z,14.31
2017-05-24T06:56:53.068Z,14.34
2017-05-24T06:57:53.133Z,14.31
2017-05-24T06:58:53.169Z,14.36
2017-05-24T06:59:53.183Z,14.34
2017-05-24T07:00:53.219Z,14.31
2017-05-24T07:01:53.263Z,14.28
2017-05-24T07:02:53.716Z,14.51
2017-05-24T07:03:53.326Z,14.56
2017-05-24T07:04:53.363Z,14.56
2017-05-24T07:05:53.379Z,14.57
2017-05-24T07:06:53.397Z,14.61
2017-05-24T07:07:53.452Z,14.66
2017-05-24T07:08:53.465Z,14.63
2017-05-24T07:09:53.500Z,14.59
2017-05-24T07:10:53.555Z,14.69
2017-05-24T07:11:53.599Z,14.77
2017-05-24T07:12:53.614Z,14.64
2017-05-24T07:13:53.648Z,14.75
2017-05-24T07:14:53.705Z,14.77
2017-05-24T07:15:53.802Z,14.77
2017-05-24T07:16:53.771Z,14.8
2017-05-24T07:17:53.819Z,14.93
2017-05-24T07:18:53.829Z,14.86
2017-05-24T07:19:53.870Z,14.89
2017-05-24T07:20:53.912Z,14.94
2017-05-24T07:21:53.935Z,14.93
2017-05-24T07:22:53.973Z,14.83
2017-05-24T07:23:54.002Z,14.9
2017-05-24T07:24:54.014Z,14.97
2017-05-24T07:25:54.072Z,14.9
2017-05-24T07:26:54.103Z,14.89
2017-05-24T07:27:54.141Z,14.97
2017-05-24T07:28:54.167Z,14.97
2017-05-24T07:29:54.210Z,15.1
2017-05-24T07:30:54.223Z,15.1
2017-05-24T07:31:54.278Z,15.18
2017-05-24T07:32:54.311Z,15.23
2017-05-24T07:33:54.323Z,15.18
2017-05-24T07:34:54.374Z,15.26
2017-05-24T07:35:54.415Z,15.23
2017-05-24T07:36:54.447Z,15.23
2017-05-24T07:37:54.477Z,15.22
2017-05-24T07:38:54.519Z,15.22
2017-05-24T07:39:54.547Z,15.08
2017-05-24T07:40:54.592Z,14.97
2017-05-24T07:41:54.606Z,14.98
2017-05-24T07:42:54.644Z,14.95
2017-05-24T07:43:54.692Z,14.79
2017-05-24T07:44:54.724Z,14.82
2017-05-24T07:45:54.736Z,14.8
2017-05-24T07:46:54.787Z,14.75
2017-05-24T07:47:54.831Z,14.67
2017-05-24T07:48:54.856Z,14.67
2017-05-24T07:49:54.892Z,14.79
2017-05-24T07:50:54.918Z,14.61
2017-05-24T07:51:54.951Z,14.57
2017-05-24T07:52:54.990Z,14.59
2017-05-24T07:53:55.018Z,14.44
2017-05-24T07:54:55.068Z,14.36
2017-05-24T07:55:55.096Z,14.28
2017-05-24T07:56:55.130Z,14.21
2017-05-24T07:57:55.154Z,14.16
2017-05-24T07:58:55.212Z,14.08
2017-05-24T07:59:55.215Z,14.02
2017-05-24T08:00:55.269Z,14.03
2017-05-24T08:01:55.301Z,13.97
2017-05-24T08:02:55.344Z,14.03
2017-05-24T08:03:55.366Z,13.9
2017-05-24T08:04:55.410Z,13.9
2017-05-24T08:05:55.435Z,13.97
2017-05-24T08:06:55.456Z,13.91
2017-05-24T08:07:55.496Z,13.9
2017-05-24T08:08:55.541Z,13.94
2017-05-24T08:09:55.556Z,14.02
2017-05-24T08:10:55.604Z,14.02
2017-05-24T08:11:55.640Z,14.01
2017-05-24T08:12:55.656Z,14.08
2017-05-24T08:13:55.717Z,14.06
2017-05-24T08:14:55.748Z,14.23
2017-05-24T08:15:55.758Z,14.26
2017-05-24T08:16:55.808Z,14.31
2017-05-24T08:17:55.848Z,14.46
2017-05-24T08:18:55.878Z,14.63
2017-05-24T08:19:55.910Z,14.79
2017-05-24T08:20:55.925Z,15
2017-05-24T08:21:55.979Z,15.18
2017-05-24T08:22:56.007Z,15.4
2017-05-24T08:23:56.034Z,15.52
2017-05-24T08:24:56.082Z,15.62
2017-05-24T08:25:56.089Z,15.75
2017-05-24T08:26:56.144Z,15.78
2017-05-24T08:27:56.187Z,15.81
2017-05-24T08:28:56.214Z,15.89
2017-05-24T08:29:56.259Z,15.95
2017-05-24T08:30:56.262Z,16.04
2017-05-24T08:31:56.330Z,16.14
2017-05-24T08:32:56.350Z,16.16
2017-05-24T08:33:56.354Z,16.21
2017-05-24T08:34:56.426Z,16.29
2017-05-24T08:35:56.455Z,16.33
2017-05-24T08:36:56.684Z,16.39
2017-05-24T08:37:56.529Z,16.45
2017-05-24T08:38:56.543Z,16.51
2017-05-24T08:39:56.549Z,16.57
2017-05-24T08:40:56.631Z,16.66
2017-05-24T08:41:56.661Z,16.7
2017-05-24T08:42:56.687Z,16.73
2017-05-24T08:43:56.735Z,16.85
2017-05-24T08:44:56.752Z,17.03
2017-05-24T08:45:56.801Z,17.1
2017-05-24T08:46:56.837Z,17.31
2017-05-24T08:47:56.877Z,17.58
2017-05-24T08:48:56.909Z,17.95
2017-05-24T08:49:56.950Z,18.08
2017-05-24T08:50:56.974Z,18.27
2017-05-24T08:51:57.015Z,18.51
2017-05-24T08:52:57.049Z,18.72
2017-05-24T08:53:57.087Z,18.86
2017-05-24T08:54:57.124Z,18.89
2017-05-24T08:55:57.140Z,18.81
2017-05-24T08:56:57.186Z,18.66
2017-05-24T08:57:57.230Z,18.44
2017-05-24T08:58:57.243Z,18.17
2017-05-24T08:59:57.297Z,17.92
2017-05-24T09:00:57.340Z,17.66
2017-05-24T09:01:57.339Z,17.55
2017-05-24T09:02:57.399Z,17.46
2017-05-24T09:03:57.424Z,17.38
2017-05-24T09:04:57.449Z,17.17
2017-05-24T09:05:57.512Z,16.97
2017-05-24T09:06:57.553Z,16.88
2017-05-24T09:07:57.574Z,16.69
2017-05-24T09:08:57.617Z,16.52
2017-05-24T09:09:57.652Z,16.36
2017-05-24T09:10:57.662Z,16.16
2017-05-24T09:11:57.719Z,16.08
2017-05-24T09:12:57.752Z,16.17
2017-05-24T09:13:57.795Z,16.32
2017-05-24T09:14:57.820Z,16.29
2017-05-24T09:15:57.860Z,16.45
2017-05-24T09:16:57.896Z,16.47
2017-05-24T09:17:57.928Z,16.47
2017-05-24T09:18:57.946Z,16.37
2017-05-24T09:19:58.005Z,16.47
2017-05-24T09:20:58.010Z,16.4
2017-05-24T09:21:58.129Z,16.47
2017-05-24T09:22:58.102Z,16.39
2017-05-24T09:23:58.152Z,16.36
2017-05-24T09:24:58.150Z,16.32
2017-05-24T09:25:58.207Z,16.16
2017-05-24T09:26:58.222Z,16.16
2017-05-24T09:27:58.269Z,16.06
2017-05-24T09:28:58.322Z,15.91
2017-05-24T09:29:58.353Z,15.8
2017-05-24T09:30:58.385Z,15.68
2017-05-24T09:31:58.392Z,15.58
2017-05-24T09:32:58.446Z,15.58
2017-05-24T09:33:58.481Z,15.7
2017-05-24T09:34:58.514Z,15.86
2017-05-24T09:35:58.553Z,16.16
2017-05-24T09:36:58.583Z,16.33
2017-05-24T09:37:58.622Z,16.51
2017-05-24T09:38:58.672Z,16.81
2017-05-24T09:39:58.703Z,16.9
2017-05-24T09:40:58.729Z,17.06
2017-05-24T09:41:58.731Z,17.24
2017-05-24T09:42:58.864Z,17.27
2017-05-24T09:43:58.833Z,17.3
2017-05-24T09:44:58.855Z,17.35
2017-05-24T09:45:58.908Z,17.35
2017-05-24T09:46:58.928Z,17.24
2017-05-24T09:47:58.971Z,17.12
2017-05-24T09:48:59.019Z,16.91
2017-05-24T09:49:59.049Z,16.82
2017-05-24T09:50:59.074Z,16.8
2017-05-24T09:51:59.118Z,16.66
2017-05-24T09:52:59.160Z,16.7
2017-05-24T09:53:59.188Z,16.65
2017-05-24T09:54:59.215Z,16.66
2017-05-24T09:55:59.258Z,16.67
2017-05-24T09:56:59.283Z,16.55
2017-05-24T09:57:59.336Z,16.49
2017-05-24T09:58:59.370Z,16.57
2017-05-24T09:59:59.386Z,16.67
2017-05-24T10:00:59.429Z,16.73
2017-05-24T10:01:59.471Z,16.73
2017-05-24T10:02:59.513Z,16.82
2017-05-24T10:03:59.540Z,16.87
2017-05-24T10:04:59.639Z,17.1
2017-05-24T10:05:59.603Z,17.2
2017-05-24T10:06:59.642Z,17.45
2017-05-24T10:07:59.664Z,17.58
2017-05-24T10:08:59.720Z,17.71
2017-05-24T10:09:59.750Z,17.84
2017-05-24T10:10:59.786Z,17.96
2017-05-24T10:11:59.808Z,18.08
2017-05-24T10:12:59.875Z,18.24
2017-05-24T10:13:59.903Z,18.44
2017-05-24T10:14:59.930Z,18.56
2017-05-24T10:16:00.005Z,18.72
2017-05-24T10:16:59.995Z,18.78
2017-05-24T10:18:00.020Z,18.76
2017-05-24T10:19:00.073Z,18.82
2017-05-24T10:20:00.107Z,18.84
2017-05-24T10:21:00.124Z,18.82
2017-05-24T10:22:00.155Z,18.75
2017-05-24T10:23:00.215Z,18.79
2017-05-24T10:24:00.242Z,18.74
2017-05-24T10:25:00.309Z,18.72
2017-05-24T10:26:00.315Z,18.86
2017-05-24T10:27:00.362Z,18.96
2017-05-24T10:28:00.403Z,19.05
2017-05-24T10:29:00.433Z,19.27
2017-05-24T10:30:00.525Z,19.4
2017-05-24T10:31:00.784Z,19.56
2017-05-24T10:32:00.541Z,19.75
2017-05-24T10:33:00.554Z,19.78
2017-05-24T10:34:00.614Z,19.56
2017-05-24T10:35:00.650Z,19.31
2017-05-24T10:36:00.681Z,19.07
2017-05-24T10:37:00.716Z,19
2017-05-24T10:38:00.825Z,18.84
2017-05-24T10:39:00.791Z,18.66
2017-05-24T10:40:00.827Z,18.61
2017-05-24T10:41:00.869Z,18.49
2017-05-24T10:42:00.904Z,18.38
2017-05-24T10:43:00.951Z,18.41
2017-05-24T10:44:00.973Z,18.56
2017-05-24T10:45:01.019Z,18.86
2017-05-24T10:46:01.042Z,19.31
2017-05-24T10:47:01.070Z,20.19
2017-05-24T10:48:01.164Z,21.04
2017-05-24T10:49:01.160Z,21.68
2017-05-24T10:50:01.244Z,21.96
2017-05-24T10:51:01.224Z,22.49
2017-05-24T10:52:01.251Z,22.89
2017-05-24T10:53:01.308Z,23.41
2017-05-24T10:54:01.321Z,23.64
2017-05-24T10:55:01.375Z,23.67
2017-05-24T10:56:01.412Z,23.64
2017-05-24T10:57:01.455Z,23.44
2017-05-24T10:58:01.488Z,23.21
2017-05-24T10:59:01.581Z,23.03
2017-05-24T11:00:01.567Z,22.75
2017-05-24T11:01:01.608Z,22.54
2017-05-24T11:02:01.627Z,22.45
2017-05-24T11:03:01.684Z,22.05
2017-05-24T11:04:01.711Z,21.74
2017-05-24T11:05:01.753Z,21.33
2017-05-24T11:06:01.772Z,21.23
2017-05-24T11:07:01.822Z,21.04
2017-05-24T11:08:01.861Z,21.01
2017-05-24T11:09:01.882Z,20.93
2017-05-24T11:10:01.934Z,20.85
2017-05-24T11:11:01.951Z,20.79
2017-05-24T11:12:02.010Z,20.82
2017-05-24T11:13:02.063Z,20.93
2017-05-24T11:14:02.088Z,21.23
2017-05-24T11:15:02.135Z,21.51
2017-05-24T11:16:02.162Z,21.7
2017-05-24T11:17:02.205Z,21.68
2017-05-24T11:18:02.231Z,21.43
2017-05-24T11:19:02.253Z,21
2017-05-24T11:20:02.315Z,20.49
2017-05-24T11:21:02.359Z,20.29
2017-05-24T11:22:02.386Z,20.08
2017-05-24T11:23:02.381Z,20
2017-05-24T11:24:02.451Z,19.92
2017-05-24T11:25:02.501Z,19.93
2017-05-24T11:26:02.508Z,19.86
2017-05-24T11:27:02.638Z,20.1
2017-05-24T11:28:02.638Z,20.1
2017-05-24T11:29:02.652Z,20.12
2017-05-24T11:30:02.705Z,20.12
2017-05-24T11:31:02.740Z,20.12
2017-05-24T11:32:02.768Z,20.18
2017-05-24T11:33:02.803Z,20.35
2017-05-24T11:34:02.817Z,20.6
2017-05-24T11:35:02.859Z,21.06
2017-05-24T11:36:02.910Z,21.43
2017-05-24T11:37:02.943Z,21.66
2017-05-24T11:38:02.986Z,21.96
2017-05-24T11:39:03.021Z,22.42
2017-05-24T11:40:03.077Z,22.6
2017-05-24T11:41:03.089Z,22.84
2017-05-24T11:42:03.136Z,22.99
2017-05-24T11:43:03.175Z,23
2017-05-24T11:44:03.214Z,23.15
2017-05-24T11:45:03.256Z,23.19
2017-05-24T11:46:03.307Z,23.29
2017-05-24T11:47:03.320Z,23.48
2017-05-24T11:48:03.367Z,23.6
2017-05-24T11:49:03.382Z,23.57
2017-05-24T11:50:03.392Z,23.44
2017-05-24T11:51:03.454Z,23.32
2017-05-24T11:52:03.514Z,23.15
2017-05-24T11:53:03.565Z,23
2017-05-24T11:54:03.622Z,22.84
2017-05-24T11:55:03.632Z,22.71
2017-05-24T11:56:03.675Z,22.57
2017-05-24T11:57:03.741Z,22.66
2017-05-24T11:58:03.790Z,22.6
2017-05-24T11:59:03.764Z,22.6
2017-05-24T12:00:03.828Z,22.71
2017-05-24T12:01:04.172Z,22.82
2017-05-24T12:02:03.902Z,23.07
2017-05-24T12:03:03.934Z,23.12
2017-05-24T12:04:03.971Z,23.12
2017-05-24T12:05:04.189Z,23.29
2017-05-24T12:06:04.054Z,23.21
2017-05-24T12:07:04.065Z,23.18
2017-05-24T12:08:04.124Z,23.18
2017-05-24T12:09:04.164Z,23.18
2017-05-24T12:10:04.554Z,23.15
2017-05-24T12:11:04.245Z,23.25
2017-05-24T12:12:04.269Z,23.35
2017-05-24T12:13:04.324Z,23.45
2017-05-24T12:14:04.362Z,23.38
2017-05-24T12:15:04.363Z,23.16
2017-05-24T12:16:04.434Z,22.86
2017-05-24T12:17:04.452Z,22.64
2017-05-24T12:18:04.516Z,22.51
2017-05-24T12:19:04.549Z,22.42
2017-05-24T12:20:04.732Z,22.26
2017-05-24T12:21:04.595Z,21.99
2017-05-24T12:22:04.674Z,21.76
2017-05-24T12:23:04.680Z,21.71
2017-05-24T12:24:04.742Z,21.55
2017-05-24T12:25:04.779Z,21.27
2017-05-24T12:26:04.816Z,21.21
2017-05-24T12:27:04.844Z,21.11
2017-05-24T12:28:04.879Z,21.15
2017-05-24T12:29:04.931Z,21.15
2017-05-24T12:30:04.969Z,21.21
2017-05-24T12:31:04.999Z,21.25
2017-05-24T12:32:05.042Z,21.25
2017-05-24T12:33:05.086Z,21.33
2017-05-24T12:34:05.098Z,21.38
2017-05-24T12:35:05.161Z,21.43
2017-05-24T12:36:05.158Z,21.31
2017-05-24T12:37:05.226Z,21.01
2017-05-24T12:38:05.283Z,21.08
2017-05-24T12:39:05.290Z,21.01
2017-05-24T12:40:05.385Z,21.04
2017-05-24T12:41:05.399Z,21
2017-05-24T12:42:05.418Z,21.04
2017-05-24T12:43:05.466Z,21.27
2017-05-24T12:44:05.472Z,21.3
2017-05-24T12:45:05.527Z,21.38
2017-05-24T12:46:05.574Z,21.34
2017-05-24T12:47:05.600Z,21.43
2017-05-24T12:48:05.647Z,21.55
2017-05-24T12:49:05.675Z,21.62
2017-05-24T12:50:05.716Z,21.59
2017-05-24T12:51:05.755Z,21.52
2017-05-24T12:52:05.773Z,21.38
2017-05-24T12:53:05.835Z,21.28
2017-05-24T12:54:05.866Z,21.01
2017-05-24T12:55:06.093Z,20.83
2017-05-24T12:56:05.951Z,20.74